sensor_id;sensor_type;location;lat;lon;timestamp;pressure;altitude;pressure_sealevel;temperature;humidity
64628;BME280;68467;50.960;0.314;2024-02-28T00:01:35;100266.68;;;8.85;100.00
64628;BME280;68467;50.960;0.314;2024-02-28T00:04:03;100269.37;;;8.31;100.00
64628;BME280;68467;50.960;0.314;2024-02-28T00:06:31;100269.97;;;8.11;100.00
64628;BME280;68467;50.960;0.314;2024-02-28T00:08:59;100265.00;;;7.94;100.00
64628;BME280;68467;50.960;0.314;2024-02-28T00:11:29;100263.79;;;8.41;100.00
64628;BME280;68467;50.960;0.314;2024-02-28T00:13:57;100268.36;;;8.23;100.00
64628;BME280;68467;50.960;0.314;2024-02-28T00:16:26;100267.92;;;8.30;100.00
64628;BME280;68467;50.960;0.314;2024-02-28T00:18:54;100263.26;;;9.44;100.00
64628;BME280;68467;50.960;0.314;2024-02-28T00:21:21;100259.24;;;9.03;100.00
64628;BME280;68467;50.960;0.314;2024-02-28T00:23:48;100261.03;;;9.96;100.00
64628;BME280;68467;50.960;0.314;2024-02-28T00:26:15;100262.68;;;9.59;100.00
64628;BME280;68467;50.960;0.314;2024-02-28T00:28:43;100268.94;;;8.84;100.00
64628;BME280;68467;50.960;0.314;2024-02-28T00:31:10;100268.17;;;9.44;100.00
64628;BME280;68467;50.960;0.314;2024-02-28T00:33:37;100265.73;;;8.32;100.00
64628;BME280;68467;50.960;0.314;2024-02-28T00:36:04;100264.87;;;9.34;100.00
64628;BME280;68467;50.960;0.314;2024-02-28T00:38:32;100262.34;;;9.81;100.00
64628;BME280;68467;50.960;0.314;2024-02-28T00:40:59;100261.94;;;9.13;100.00
64628;BME280;68467;50.960;0.314;2024-02-28T00:43:26;100265.25;;;10.16;100.00
64628;BME280;68467;50.960;0.314;2024-02-28T00:45:53;100262.74;;;10.03;100.00
64628;BME280;68467;50.960;0.314;2024-02-28T00:48:21;100263.16;;;9.98;100.00
64628;BME280;68467;50.960;0.314;2024-02-28T00:50:48;100263.47;;;10.63;100.00
64628;BME280;68467;50.960;0.314;2024-02-28T00:53:17;100261.53;;;10.43;100.00
64628;BME280;68467;50.960;0.314;2024-02-28T00:55:44;100264.81;;;9.43;100.00
64628;BME280;68467;50.960;0.314;2024-02-28T00:58:11;100266.30;;;9.20;100.00
64628;BME280;68467;50.960;0.314;2024-02-28T01:00:38;100272.16;;;9.68;100.00
64628;BME280;68467;50.960;0.314;2024-02-28T01:03:05;100275.70;;;10.37;100.00
64628;BME280;68467;50.960;0.314;2024-02-28T01:05:34;100276.02;;;10.40;100.00
64628;BME280;68467;50.960;0.314;2024-02-28T01:08:02;100278.28;;;10.38;100.00
64628;BME280;68467;50.960;0.314;2024-02-28T01:10:28;100278.22;;;10.21;100.00
64628;BME280;68467;50.960;0.314;2024-02-28T01:12:56;100273.52;;;9.94;100.00
64628;BME280;68467;50.960;0.314;2024-02-28T01:15:24;100272.38;;;10.53;100.00
64628;BME280;68467;50.960;0.314;2024-02-28T01:17:50;100271.47;;;10.60;100.00
64628;BME280;68467;50.960;0.314;2024-02-28T01:20:17;100275.34;;;10.22;100.00
64628;BME280;68467;50.960;0.314;2024-02-28T01:22:45;100272.04;;;10.35;100.00
64628;BME280;68467;50.960;0.314;2024-02-28T01:25:13;100270.90;;;10.01;100.00
64628;BME280;68467;50.960;0.314;2024-02-28T01:27:40;100263.13;;;10.13;100.00
64628;BME280;68467;50.960;0.314;2024-02-28T01:30:08;100261.34;;;9.94;100.00
64628;BME280;68467;50.960;0.314;2024-02-28T01:32:35;100261.40;;;9.94;100.00
64628;BME280;68467;50.960;0.314;2024-02-28T01:35:02;100260.70;;;10.32;100.00
64628;BME280;68467;50.960;0.314;2024-02-28T01:37:30;100261.87;;;9.91;100.00
64628;BME280;68467;50.960;0.314;2024-02-28T01:39:57;100264.45;;;9.86;100.00
64628;BME280;68467;50.960;0.314;2024-02-28T01:42:25;100261.31;;;10.43;100.00
64628;BME280;68467;50.960;0.314;2024-02-28T01:44:52;100256.51;;;10.90;100.00
64628;BME280;68467;50.960;0.314;2024-02-28T01:47:19;100260.47;;;10.01;100.00
64628;BME280;68467;50.960;0.314;2024-02-28T01:49:47;100257.94;;;10.90;100.00
64628;BME280;68467;50.960;0.314;2024-02-28T01:52:15;100263.53;;;9.73;100.00
64628;BME280;68467;50.960;0.314;2024-02-28T01:54:44;100264.07;;;10.25;100.00
64628;BME280;68467;50.960;0.314;2024-02-28T01:57:11;100264.08;;;10.28;100.00
64628;BME280;68467;50.960;0.314;2024-02-28T01:59:39;100255.63;;;10.91;100.00
64628;BME280;68467;50.960;0.314;2024-02-28T02:02:08;100253.76;;;10.48;100.00
64628;BME280;68467;50.960;0.314;2024-02-28T02:04:35;100259.93;;;9.98;100.00
64628;BME280;68467;50.960;0.314;2024-02-28T02:07:03;100263.13;;;9.65;100.00
64628;BME280;68467;50.960;0.314;2024-02-28T02:09:34;100263.31;;;10.30;100.00
64628;BME280;68467;50.960;0.314;2024-02-28T02:12:03;100255.90;;;10.93;100.00
64628;BME280;68467;50.960;0.314;2024-02-28T02:14:30;100255.71;;;11.09;100.00
64628;BME280;68467;50.960;0.314;2024-02-28T02:16:57;100253.04;;;10.81;100.00
64628;BME280;68467;50.960;0.314;2024-02-28T02:19:24;100250.98;;;11.41;100.00
64628;BME280;68467;50.960;0.314;2024-02-28T02:21:53;100254.39;;;11.11;100.00
64628;BME280;68467;50.960;0.314;2024-02-28T02:24:23;100251.33;;;11.23;100.00
64628;BME280;68467;50.960;0.314;2024-02-28T02:26:55;100252.94;;;11.14;100.00
64628;BME280;68467;50.960;0.314;2024-02-28T02:29:22;100253.84;;;10.90;100.00
64628;BME280;68467;50.960;0.314;2024-02-28T02:31:50;100253.22;;;10.77;100.00
64628;BME280;68467;50.960;0.314;2024-02-28T02:34:18;100254.17;;;11.29;100.00
64628;BME280;68467;50.960;0.314;2024-02-28T02:36:47;100252.98;;;11.85;100.00
64628;BME280;68467;50.960;0.314;2024-02-28T02:39:14;100251.29;;;11.51;100.00
64628;BME280;68467;50.960;0.314;2024-02-28T02:41:41;100251.97;;;11.11;100.00
64628;BME280;68467;50.960;0.314;2024-02-28T02:44:08;100251.50;;;10.47;100.00
64628;BME280;68467;50.960;0.314;2024-02-28T02:46:36;100250.80;;;10.84;100.00
64628;BME280;68467;50.960;0.314;2024-02-28T02:49:03;100252.25;;;11.47;100.00
64628;BME280;68467;50.960;0.314;2024-02-28T02:51:30;100253.92;;;11.14;100.00
64628;BME280;68467;50.960;0.314;2024-02-28T02:53:59;100245.92;;;11.16;100.00
64628;BME280;68467;50.960;0.314;2024-02-28T02:56:26;100233.95;;;11.39;100.00
64628;BME280;68467;50.960;0.314;2024-02-28T02:58:53;100236.37;;;11.52;100.00
64628;BME280;68467;50.960;0.314;2024-02-28T03:01:20;100235.05;;;11.88;100.00
64628;BME280;68467;50.960;0.314;2024-02-28T03:03:47;100232.34;;;11.09;100.00
64628;BME280;68467;50.960;0.314;2024-02-28T03:06:14;100232.72;;;11.08;100.00
64628;BME280;68467;50.960;0.314;2024-02-28T03:08:41;100232.19;;;11.28;100.00
64628;BME280;68467;50.960;0.314;2024-02-28T03:11:08;100230.12;;;10.86;100.00
64628;BME280;68467;50.960;0.314;2024-02-28T03:13:35;100227.84;;;11.68;100.00
64628;BME280;68467;50.960;0.314;2024-02-28T03:16:03;100228.46;;;12.11;100.00
64628;BME280;68467;50.960;0.314;2024-02-28T03:18:30;100229.08;;;11.73;100.00
64628;BME280;68467;50.960;0.314;2024-02-28T03:20:57;100230.88;;;11.61;100.00
64628;BME280;68467;50.960;0.314;2024-02-28T03:23:25;100232.15;;;11.65;100.00
64628;BME280;68467;50.960;0.314;2024-02-28T03:25:52;100232.78;;;11.12;100.00
64628;BME280;68467;50.960;0.314;2024-02-28T03:28:19;100235.04;;;11.19;100.00
64628;BME280;68467;50.960;0.314;2024-02-28T03:30:46;100235.65;;;10.80;100.00
64628;BME280;68467;50.960;0.314;2024-02-28T03:33:13;100236.69;;;11.41;100.00
64628;BME280;68467;50.960;0.314;2024-02-28T03:35:40;100234.70;;;10.99;100.00
64628;BME280;68467;50.960;0.314;2024-02-28T03:38:08;100240.12;;;10.68;100.00
64628;BME280;68467;50.960;0.314;2024-02-28T03:40:36;100237.34;;;10.75;100.00
64628;BME280;68467;50.960;0.314;2024-02-28T03:43:03;100234.77;;;10.50;100.00
64628;BME280;68467;50.960;0.314;2024-02-28T03:45:31;100237.73;;;10.72;100.00
64628;BME280;68467;50.960;0.314;2024-02-28T03:48:04;100234.94;;;10.85;100.00
64628;BME280;68467;50.960;0.314;2024-02-28T03:50:31;100233.35;;;11.46;100.00
64628;BME280;68467;50.960;0.314;2024-02-28T03:52:58;100235.18;;;11.32;100.00
64628;BME280;68467;50.960;0.314;2024-02-28T03:55:25;100237.36;;;11.80;100.00
64628;BME280;68467;50.960;0.314;2024-02-28T03:57:52;100230.66;;;11.05;100.00
64628;BME280;68467;50.960;0.314;2024-02-28T04:00:19;100230.82;;;11.33;100.00
64628;BME280;68467;50.960;0.314;2024-02-28T04:02:46;100225.87;;;11.11;100.00
64628;BME280;68467;50.960;0.314;2024-02-28T04:05:13;100227.90;;;10.75;100.00
64628;BME280;68467;50.960;0.314;2024-02-28T04:07:40;100226.07;;;11.59;100.00
64628;BME280;68467;50.960;0.314;2024-02-28T04:10:09;100220.18;;;11.30;100.00
64628;BME280;68467;50.960;0.314;2024-02-28T04:12:36;100217.65;;;11.60;100.00
64628;BME280;68467;50.960;0.314;2024-02-28T04:15:04;100221.15;;;11.25;100.00
64628;BME280;68467;50.960;0.314;2024-02-28T04:17:31;100229.17;;;11.03;100.00
64628;BME280;68467;50.960;0.314;2024-02-28T04:19:58;100230.61;;;10.92;100.00
64628;BME280;68467;50.960;0.314;2024-02-28T04:22:25;100230.91;;;11.31;100.00
64628;BME280;68467;50.960;0.314;2024-02-28T04:24:53;100231.02;;;10.88;100.00
64628;BME280;68467;50.960;0.314;2024-02-28T04:27:20;100229.26;;;12.04;100.00
64628;BME280;68467;50.960;0.314;2024-02-28T04:29:47;100233.96;;;11.36;100.00
64628;BME280;68467;50.960;0.314;2024-02-28T04:32:14;100236.41;;;10.96;100.00
64628;BME280;68467;50.960;0.314;2024-02-28T04:34:41;100238.84;;;10.69;100.00
64628;BME280;68467;50.960;0.314;2024-02-28T04:37:08;100236.04;;;12.32;100.00
64628;BME280;68467;50.960;0.314;2024-02-28T04:39:35;100237.24;;;11.72;100.00
64628;BME280;68467;50.960;0.314;2024-02-28T04:42:03;100233.94;;;12.60;100.00
64628;BME280;68467;50.960;0.314;2024-02-28T04:44:30;100233.50;;;12.21;100.00
64628;BME280;68467;50.960;0.314;2024-02-28T04:46:57;100235.65;;;12.34;100.00
64628;BME280;68467;50.960;0.314;2024-02-28T04:49:24;100237.50;;;13.03;100.00
64628;BME280;68467;50.960;0.314;2024-02-28T04:51:51;100230.92;;;13.23;100.00
64628;BME280;68467;50.960;0.314;2024-02-28T04:54:18;100229.67;;;13.05;100.00
64628;BME280;68467;50.960;0.314;2024-02-28T04:56:45;100221.87;;;13.32;100.00
64628;BME280;68467;50.960;0.314;2024-02-28T04:59:13;100225.87;;;13.00;100.00
64628;BME280;68467;50.960;0.314;2024-02-28T05:01:40;100232.80;;;11.69;100.00
64628;BME280;68467;50.960;0.314;2024-02-28T05:04:07;100229.72;;;12.58;100.00
64628;BME280;68467;50.960;0.314;2024-02-28T05:06:35;100229.34;;;12.93;100.00
64628;BME280;68467;50.960;0.314;2024-02-28T05:09:03;100226.88;;;11.87;100.00
64628;BME280;68467;50.960;0.314;2024-02-28T05:11:29;100229.05;;;11.39;100.00
64628;BME280;68467;50.960;0.314;2024-02-28T05:13:56;100229.96;;;11.26;100.00
64628;BME280;68467;50.960;0.314;2024-02-28T05:16:24;100224.32;;;10.49;100.00
64628;BME280;68467;50.960;0.314;2024-02-28T05:18:51;100220.79;;;11.86;100.00
64628;BME280;68467;50.960;0.314;2024-02-28T05:21:18;100213.58;;;12.17;100.00
64628;BME280;68467;50.960;0.314;2024-02-28T05:23:45;100214.27;;;12.81;100.00
64628;BME280;68467;50.960;0.314;2024-02-28T05:26:12;100212.43;;;13.05;100.00
64628;BME280;68467;50.960;0.314;2024-02-28T05:28:39;100213.34;;;12.84;100.00
64628;BME280;68467;50.960;0.314;2024-02-28T05:31:21;100215.11;;;13.60;100.00
64628;BME280;68467;50.960;0.314;2024-02-28T05:33:48;100210.73;;;13.50;100.00
64628;BME280;68467;50.960;0.314;2024-02-28T05:36:15;100206.32;;;13.46;100.00
64628;BME280;68467;50.960;0.314;2024-02-28T05:38:43;100200.58;;;14.01;100.00
64628;BME280;68467;50.960;0.314;2024-02-28T05:41:10;100207.34;;;13.67;100.00
64628;BME280;68467;50.960;0.314;2024-02-28T05:43:37;100207.22;;;12.99;100.00
64628;BME280;68467;50.960;0.314;2024-02-28T05:46:05;100209.74;;;13.28;100.00
64628;BME280;68467;50.960;0.314;2024-02-28T05:48:32;100201.47;;;12.76;100.00
64628;BME280;68467;50.960;0.314;2024-02-28T05:51:01;100199.83;;;13.92;100.00
64628;BME280;68467;50.960;0.314;2024-02-28T05:53:28;100197.43;;;14.36;100.00
64628;BME280;68467;50.960;0.314;2024-02-28T05:55:55;100203.55;;;13.89;100.00
64628;BME280;68467;50.960;0.314;2024-02-28T05:58:23;100209.11;;;14.23;100.00
64628;BME280;68467;50.960;0.314;2024-02-28T06:00:51;100210.89;;;13.15;100.00
64628;BME280;68467;50.960;0.314;2024-02-28T06:03:17;100212.61;;;13.51;100.00
64628;BME280;68467;50.960;0.314;2024-02-28T06:05:45;100208.87;;;14.49;100.00
64628;BME280;68467;50.960;0.314;2024-02-28T06:08:12;100201.92;;;14.86;100.00
64628;BME280;68467;50.960;0.314;2024-02-28T06:10:40;100202.39;;;14.27;100.00
64628;BME280;68467;50.960;0.314;2024-02-28T06:13:07;100193.39;;;14.19;100.00
64628;BME280;68467;50.960;0.314;2024-02-28T06:15:35;100182.95;;;12.91;100.00
64628;BME280;68467;50.960;0.314;2024-02-28T06:18:02;100184.24;;;11.91;100.00
64628;BME280;68467;50.960;0.314;2024-02-28T06:20:29;100185.16;;;12.53;100.00
64628;BME280;68467;50.960;0.314;2024-02-28T06:22:56;100188.62;;;12.01;100.00
64628;BME280;68467;50.960;0.314;2024-02-28T06:25:23;100193.11;;;12.47;100.00
64628;BME280;68467;50.960;0.314;2024-02-28T06:27:50;100199.51;;;11.80;100.00
64628;BME280;68467;50.960;0.314;2024-02-28T06:30:18;100205.18;;;12.19;100.00
64628;BME280;68467;50.960;0.314;2024-02-28T06:32:45;100209.47;;;12.24;100.00
64628;BME280;68467;50.960;0.314;2024-02-28T06:35:12;100213.80;;;12.52;100.00
64628;BME280;68467;50.960;0.314;2024-02-28T06:37:38;100220.67;;;12.14;100.00
64628;BME280;68467;50.960;0.314;2024-02-28T06:40:07;100221.90;;;11.86;100.00
64628;BME280;68467;50.960;0.314;2024-02-28T06:42:34;100216.26;;;11.83;100.00
64628;BME280;68467;50.960;0.314;2024-02-28T06:45:01;100215.45;;;11.83;100.00
64628;BME280;68467;50.960;0.314;2024-02-28T06:47:28;100211.27;;;12.05;100.00
64628;BME280;68467;50.960;0.314;2024-02-28T06:49:55;100213.71;;;11.21;100.00
64628;BME280;68467;50.960;0.314;2024-02-28T06:52:22;100216.76;;;11.89;100.00
64628;BME280;68467;50.960;0.314;2024-02-28T06:54:49;100216.50;;;11.12;100.00
64628;BME280;68467;50.960;0.314;2024-02-28T06:57:16;100212.32;;;11.35;100.00
64628;BME280;68467;50.960;0.314;2024-02-28T06:59:43;100211.30;;;11.30;100.00
64628;BME280;68467;50.960;0.314;2024-02-28T07:02:10;100205.38;;;10.90;100.00
64628;BME280;68467;50.960;0.314;2024-02-28T07:04:38;100204.11;;;10.76;100.00
64628;BME280;68467;50.960;0.314;2024-02-28T07:07:05;100203.87;;;10.28;100.00
64628;BME280;68467;50.960;0.314;2024-02-28T07:09:32;100205.26;;;10.59;100.00
64628;BME280;68467;50.960;0.314;2024-02-28T07:11:59;100203.25;;;10.72;100.00
64628;BME280;68467;50.960;0.314;2024-02-28T07:14:26;100204.52;;;10.29;100.00
64628;BME280;68467;50.960;0.314;2024-02-28T07:16:54;100203.94;;;10.42;100.00
64628;BME280;68467;50.960;0.314;2024-02-28T07:19:21;100203.46;;;10.42;100.00
64628;BME280;68467;50.960;0.314;2024-02-28T07:21:48;100200.75;;;10.06;100.00
64628;BME280;68467;50.960;0.314;2024-02-28T07:24:15;100205.74;;;10.29;100.00
64628;BME280;68467;50.960;0.314;2024-02-28T07:26:42;100207.17;;;10.03;100.00
64628;BME280;68467;50.960;0.314;2024-02-28T07:29:10;100204.51;;;9.88;100.00
64628;BME280;68467;50.960;0.314;2024-02-28T07:31:37;100203.99;;;10.11;100.00
64628;BME280;68467;50.960;0.314;2024-02-28T07:34:04;100210.13;;;10.12;100.00
64628;BME280;68467;50.960;0.314;2024-02-28T07:36:32;100208.03;;;9.77;100.00
64628;BME280;68467;50.960;0.314;2024-02-28T07:38:59;100210.63;;;10.20;100.00
64628;BME280;68467;50.960;0.314;2024-02-28T07:41:26;100208.24;;;10.19;100.00
64628;BME280;68467;50.960;0.314;2024-02-28T07:43:54;100212.90;;;10.49;100.00
64628;BME280;68467;50.960;0.314;2024-02-28T07:46:21;100211.29;;;10.68;100.00
64628;BME280;68467;50.960;0.314;2024-02-28T07:48:49;100216.30;;;10.77;100.00
64628;BME280;68467;50.960;0.314;2024-02-28T07:51:17;100216.53;;;10.88;100.00
64628;BME280;68467;50.960;0.314;2024-02-28T07:53:45;100220.62;;;10.94;100.00
64628;BME280;68467;50.960;0.314;2024-02-28T07:56:16;100221.07;;;10.90;100.00
64628;BME280;68467;50.960;0.314;2024-02-28T07:58:43;100223.45;;;11.28;100.00
64628;BME280;68467;50.960;0.314;2024-02-28T08:01:15;100222.82;;;11.52;100.00
64628;BME280;68467;50.960;0.314;2024-02-28T08:03:43;100222.08;;;11.22;100.00
64628;BME280;68467;50.960;0.314;2024-02-28T08:06:11;100224.84;;;11.33;100.00
64628;BME280;68467;50.960;0.314;2024-02-28T08:08:38;100226.09;;;10.98;100.00
64628;BME280;68467;50.960;0.314;2024-02-28T08:11:05;100226.51;;;11.44;100.00
64628;BME280;68467;50.960;0.314;2024-02-28T08:13:32;100228.74;;;11.20;100.00
64628;BME280;68467;50.960;0.314;2024-02-28T08:15:59;100234.41;;;11.15;100.00
64628;BME280;68467;50.960;0.314;2024-02-28T08:18:27;100234.02;;;10.63;100.00
64628;BME280;68467;50.960;0.314;2024-02-28T08:20:54;100236.36;;;11.11;100.00
64628;BME280;68467;50.960;0.314;2024-02-28T08:23:22;100236.99;;;10.73;100.00
64628;BME280;68467;50.960;0.314;2024-02-28T08:25:49;100228.14;;;10.71;100.00
64628;BME280;68467;50.960;0.314;2024-02-28T08:28:16;100229.70;;;10.42;100.00
64628;BME280;68467;50.960;0.314;2024-02-28T08:30:43;100233.05;;;10.54;100.00
64628;BME280;68467;50.960;0.314;2024-02-28T08:33:10;100234.00;;;11.01;100.00
64628;BME280;68467;50.960;0.314;2024-02-28T08:35:37;100241.74;;;10.72;100.00
64628;BME280;68467;50.960;0.314;2024-02-28T08:38:04;100237.61;;;11.51;100.00
64628;BME280;68467;50.960;0.314;2024-02-28T08:40:31;100238.61;;;11.46;100.00
64628;BME280;68467;50.960;0.314;2024-02-28T08:42:58;100242.49;;;11.65;100.00
64628;BME280;68467;50.960;0.314;2024-02-28T08:45:25;100244.59;;;11.41;100.00
64628;BME280;68467;50.960;0.314;2024-02-28T08:47:52;100244.06;;;11.88;100.00
64628;BME280;68467;50.960;0.314;2024-02-28T08:50:20;100247.30;;;11.15;100.00
64628;BME280;68467;50.960;0.314;2024-02-28T08:52:47;100249.60;;;11.01;100.00
64628;BME280;68467;50.960;0.314;2024-02-28T08:55:14;100245.45;;;11.83;100.00
64628;BME280;68467;50.960;0.314;2024-02-28T08:57:41;100243.69;;;11.22;100.00
64628;BME280;68467;50.960;0.314;2024-02-28T09:00:09;100243.49;;;11.30;100.00
64628;BME280;68467;50.960;0.314;2024-02-28T09:02:37;100242.57;;;11.27;100.00
64628;BME280;68467;50.960;0.314;2024-02-28T09:05:06;100243.80;;;11.41;100.00
64628;BME280;68467;50.960;0.314;2024-02-28T09:07:33;100244.83;;;11.01;100.00
64628;BME280;68467;50.960;0.314;2024-02-28T09:10:01;100245.37;;;10.23;100.00
64628;BME280;68467;50.960;0.314;2024-02-28T09:12:28;100248.14;;;10.54;100.00
64628;BME280;68467;50.960;0.314;2024-02-28T09:14:55;100246.57;;;10.78;100.00
64628;BME280;68467;50.960;0.314;2024-02-28T09:17:22;100251.49;;;10.61;100.00
64628;BME280;68467;50.960;0.314;2024-02-28T09:19:50;100251.15;;;10.71;100.00
64628;BME280;68467;50.960;0.314;2024-02-28T09:22:18;100256.38;;;10.61;100.00
64628;BME280;68467;50.960;0.314;2024-02-28T09:24:45;100256.08;;;10.53;100.00
64628;BME280;68467;50.960;0.314;2024-02-28T09:27:12;100260.23;;;10.78;100.00
64628;BME280;68467;50.960;0.314;2024-02-28T09:29:39;100257.81;;;10.60;100.00
64628;BME280;68467;50.960;0.314;2024-02-28T09:32:07;100260.06;;;10.77;100.00
64628;BME280;68467;50.960;0.314;2024-02-28T09:34:33;100252.00;;;10.36;100.00
64628;BME280;68467;50.960;0.314;2024-02-28T09:37:01;100249.59;;;10.66;100.00
64628;BME280;68467;50.960;0.314;2024-02-28T09:39:28;100252.81;;;10.17;100.00
64628;BME280;68467;50.960;0.314;2024-02-28T09:41:56;100256.40;;;10.11;100.00
64628;BME280;68467;50.960;0.314;2024-02-28T09:44:24;100255.42;;;10.71;100.00
64628;BME280;68467;50.960;0.314;2024-02-28T09:46:51;100254.00;;;10.79;100.00
64628;BME280;68467;50.960;0.314;2024-02-28T09:49:19;100261.51;;;11.89;100.00
64628;BME280;68467;50.960;0.314;2024-02-28T09:51:49;100253.92;;;12.05;100.00
64628;BME280;68467;50.960;0.314;2024-02-28T09:54:15;100246.80;;;12.01;100.00
64628;BME280;68467;50.960;0.314;2024-02-28T09:56:43;100245.20;;;11.84;100.00
64628;BME280;68467;50.960;0.314;2024-02-28T09:59:10;100240.26;;;11.67;100.00
64628;BME280;68467;50.960;0.314;2024-02-28T10:01:42;100239.28;;;11.60;100.00
64628;BME280;68467;50.960;0.314;2024-02-28T10:04:12;100233.10;;;11.53;100.00
64628;BME280;68467;50.960;0.314;2024-02-28T10:06:40;100235.89;;;11.46;100.00
64628;BME280;68467;50.960;0.314;2024-02-28T10:09:08;100237.77;;;11.35;100.00
64628;BME280;68467;50.960;0.314;2024-02-28T10:11:36;100237.29;;;11.49;100.00
64628;BME280;68467;50.960;0.314;2024-02-28T10:14:03;100238.51;;;11.09;100.00
64628;BME280;68467;50.960;0.314;2024-02-28T10:16:30;100241.82;;;11.59;100.00
64628;BME280;68467;50.960;0.314;2024-02-28T10:18:57;100249.08;;;11.47;100.00
64628;BME280;68467;50.960;0.314;2024-02-28T10:21:25;100247.73;;;11.73;100.00
64628;BME280;68467;50.960;0.314;2024-02-28T10:23:52;100248.66;;;11.64;100.00
64628;BME280;68467;50.960;0.314;2024-02-28T10:26:19;100250.47;;;12.09;100.00
64628;BME280;68467;50.960;0.314;2024-02-28T10:28:46;100248.57;;;12.12;100.00
64628;BME280;68467;50.960;0.314;2024-02-28T10:31:14;100246.69;;;11.66;100.00
64628;BME280;68467;50.960;0.314;2024-02-28T10:33:42;100245.90;;;11.22;100.00
64628;BME280;68467;50.960;0.314;2024-02-28T10:36:10;100246.01;;;11.51;100.00
64628;BME280;68467;50.960;0.314;2024-02-28T10:38:37;100240.97;;;11.14;100.00
64628;BME280;68467;50.960;0.314;2024-02-28T10:41:05;100237.33;;;11.12;100.00
64628;BME280;68467;50.960;0.314;2024-02-28T10:43:32;100235.62;;;11.77;100.00
64628;BME280;68467;50.960;0.314;2024-02-28T10:46:00;100229.47;;;11.59;100.00
64628;BME280;68467;50.960;0.314;2024-02-28T10:48:28;100226.73;;;11.32;100.00
64628;BME280;68467;50.960;0.314;2024-02-28T10:50:55;100220.12;;;12.18;100.00
64628;BME280;68467;50.960;0.314;2024-02-28T10:53:30;100219.97;;;10.89;100.00
64628;BME280;68467;50.960;0.314;2024-02-28T10:56:02;100217.11;;;11.25;100.00
64628;BME280;68467;50.960;0.314;2024-02-28T10:58:34;100214.29;;;11.40;100.00
64628;BME280;68467;50.960;0.314;2024-02-28T11:01:03;100215.00;;;11.39;100.00
64628;BME280;68467;50.960;0.314;2024-02-28T11:03:32;100212.68;;;11.04;100.00
64628;BME280;68467;50.960;0.314;2024-02-28T11:05:59;100215.92;;;11.12;100.00
64628;BME280;68467;50.960;0.314;2024-02-28T11:08:27;100213.05;;;10.78;100.00
64628;BME280;68467;50.960;0.314;2024-02-28T11:10:55;100208.01;;;11.04;100.00
64628;BME280;68467;50.960;0.314;2024-02-28T11:13:23;100205.07;;;11.57;100.00
64628;BME280;68467;50.960;0.314;2024-02-28T11:15:50;100213.92;;;11.01;100.00
64628;BME280;68467;50.960;0.314;2024-02-28T11:18:18;100212.01;;;10.68;100.00
64628;BME280;68467;50.960;0.314;2024-02-28T11:20:45;100215.43;;;10.74;100.00
64628;BME280;68467;50.960;0.314;2024-02-28T11:23:13;100211.97;;;11.06;100.00
64628;BME280;68467;50.960;0.314;2024-02-28T11:25:42;100203.18;;;11.38;100.00
64628;BME280;68467;50.960;0.314;2024-02-28T11:28:09;100206.45;;;11.11;100.00
64628;BME280;68467;50.960;0.314;2024-02-28T11:30:36;100206.83;;;10.77;100.00
64628;BME280;68467;50.960;0.314;2024-02-28T11:33:03;100204.52;;;11.23;100.00
64628;BME280;68467;50.960;0.314;2024-02-28T11:35:30;100205.80;;;11.11;100.00
64628;BME280;68467;50.960;0.314;2024-02-28T11:37:57;100196.15;;;11.03;100.00
64628;BME280;68467;50.960;0.314;2024-02-28T11:40:25;100199.74;;;10.26;100.00
64628;BME280;68467;50.960;0.314;2024-02-28T11:42:52;100191.09;;;10.77;100.00
64628;BME280;68467;50.960;0.314;2024-02-28T11:45:21;100198.80;;;9.80;100.00
64628;BME280;68467;50.960;0.314;2024-02-28T11:47:48;100190.40;;;10.20;100.00
64628;BME280;68467;50.960;0.314;2024-02-28T11:50:16;100192.72;;;10.43;100.00
64628;BME280;68467;50.960;0.314;2024-02-28T11:52:44;100189.04;;;9.99;100.00
64628;BME280;68467;50.960;0.314;2024-02-28T11:55:11;100187.76;;;10.72;100.00
64628;BME280;68467;50.960;0.314;2024-02-28T11:57:38;100188.22;;;10.28;100.00
64628;BME280;68467;50.960;0.314;2024-02-28T12:00:07;100179.09;;;9.89;100.00
64628;BME280;68467;50.960;0.314;2024-02-28T12:02:36;100173.66;;;9.27;100.00
64628;BME280;68467;50.960;0.314;2024-02-28T12:05:03;100175.35;;;9.37;100.00
64628;BME280;68467;50.960;0.314;2024-02-28T12:07:31;100172.26;;;10.60;100.00
64628;BME280;68467;50.960;0.314;2024-02-28T12:09:59;100161.50;;;10.96;100.00
64628;BME280;68467;50.960;0.314;2024-02-28T12:12:27;100160.65;;;11.11;100.00
64628;BME280;68467;50.960;0.314;2024-02-28T12:14:58;100159.97;;;10.91;100.00
64628;BME280;68467;50.960;0.314;2024-02-28T12:17:26;100155.89;;;10.83;100.00
64628;BME280;68467;50.960;0.314;2024-02-28T12:19:53;100154.69;;;11.26;100.00
64628;BME280;68467;50.960;0.314;2024-02-28T12:22:21;100152.90;;;10.04;100.00
64628;BME280;68467;50.960;0.314;2024-02-28T12:24:48;100144.64;;;10.95;100.00
64628;BME280;68467;50.960;0.314;2024-02-28T12:27:15;100143.54;;;11.29;100.00
64628;BME280;68467;50.960;0.314;2024-02-28T12:29:43;100148.91;;;11.02;100.00
64628;BME280;68467;50.960;0.314;2024-02-28T12:32:10;100146.33;;;10.86;100.00
64628;BME280;68467;50.960;0.314;2024-02-28T12:34:37;100146.52;;;11.05;100.00
64628;BME280;68467;50.960;0.314;2024-02-28T12:37:04;100149.11;;;10.86;100.00
64628;BME280;68467;50.960;0.314;2024-02-28T12:39:31;100141.67;;;10.82;100.00
64628;BME280;68467;50.960;0.314;2024-02-28T12:41:58;100139.52;;;10.55;100.00